Long Island Mac Arthur Airport Islip US
ICAO: KISP
IATA: ISP
Category: Medium
Scheduled Services: Yes

Elevation: 99 ft
TransAlt. 18000 ft.

Airport Communications:
NEW YORK APP/DEP:118
ATIS:128.45
CLNC DEL:121.85
CTAF:119.3
GND:135.3
GUARD OPS:45
NEW YORK RDO:122.6
TWR:119.3
UNICOM:122.95

KISP Zoom In..

If you have problems with the map follow the link
https://www.worldairports.se/pages/airport.php?
ICAO=KISP

Runways:

(A) RW 06 length 7006 ft width 150 ft
ILS 108.30 / hdg 59

(B) RW 10 length 5034 ft width 150 ft
---- / hdg 104

(C) RW 15L length 3175 ft width 75 ft
---- / hdg 149

(D) RW 15R length 5186 ft width 150 ft
---- / hdg 149

(E) RW 24 length 7006 ft width 150 ft
ILS 108.30 / hdg 239

(F) RW 28 length 5034 ft width 150 ft
---- / hdg 284

(G) RW 33L length 5186 ft width 150 ft
---- / hdg 329

(H) RW 33R length 3175 ft width 75 ft
---- / hdg 329

Location; KISP
Day. 21 / Time. 17.56 Zulu
* Altimeter: 29.90
* Temperature: 10° c. 50°f.
* Wind from: 310° Speed 21 kn with Gusts up to 30 kn.
Dewpoint: -02° c.
Visibility: 10 Statute Miles.
Clouds: Broken 4500 ft.

KISP 211756Z 31021G30KT 10SM BKN045 10/M02 A2990 RMK AO2 PK WND 34034/1742 SLP127 60000 T01001022 10100 20083 53009


Wind From 310°
Speed 21 kn.

 
 
jpsmedia.com for Web Design worldairports.se 2018   terms of use